Time;durP1;ratioP1;P1;durP2;ratioP2;P2;SDS_P1;SDS_P2;PMS_P1;PMS_P2;Temp;Humidity;BMP_temperature;BMP_pressure;BME280_temperature;BME280_humidity;BME280_pressure;Samples;Min_cycle;Max_cycle;Signal;HPM_P1;HPM_P2
2022/08/05 00:02:24;;;;;;;1.45;0.80;;;24.50;46.00;;;;;;6231240;28;20492;-68
2022/08/05 00:05:24;;;;;;;1.55;0.90;;;24.60;46.10;;;;;;6243721;28;20095;-69
2022/08/05 00:08:25;;;;;;;1.05;0.75;;;24.60;46.00;;;;;;6225670;28;20733;-68
2022/08/05 00:11:26;;;;;;;0.65;0.60;;;24.60;46.70;;;;;;6220168;28;20100;-68
2022/08/05 00:14:27;;;;;;;0.73;0.60;;;24.60;46.00;;;;;;6244336;28;20870;-68
2022/08/05 00:17:27;;;;;;;0.50;0.50;;;24.60;46.00;;;;;;6236517;28;20023;-68
2022/08/05 00:20:28;;;;;;;0.65;0.60;;;24.60;46.10;;;;;;6219390;28;20018;-68
2022/08/05 00:23:28;;;;;;;0.50;0.50;;;24.60;46.00;;;;;;6234501;28;20073;-68
2022/08/05 00:26:29;;;;;;;1.05;0.73;;;24.60;46.00;;;;;;6244206;28;20043;-68
2022/08/05 00:29:30;;;;;;;0.57;0.47;;;24.50;45.90;;;;;;6220060;28;20278;-68
2022/08/05 00:32:30;;;;;;;0.80;0.60;;;24.50;46.00;;;;;;6218610;28;20097;-68
2022/08/05 00:35:31;;;;;;;1.08;0.50;;;24.60;46.00;;;;;;6218540;28;20022;-68
2022/08/05 00:38:32;;;;;;;0.80;0.50;;;24.60;46.00;;;;;;6233382;28;20456;-68
2022/08/05 00:41:33;;;;;;;0.50;0.50;;;24.60;46.00;;;;;;6243740;28;20025;-68
2022/08/05 00:44:34;;;;;;;0.70;0.60;;;24.60;46.70;;;;;;6221947;28;20034;-68
2022/08/05 00:47:35;;;;;;;1.05;0.70;;;24.60;46.00;;;;;;6224269;28;20029;-68
2022/08/05 00:50:36;;;;;;;1.05;0.70;;;24.60;46.00;;;;;;6243598;28;20057;-68
2022/08/05 00:53:37;;;;;;;0.75;0.75;;;24.60;46.00;;;;;;6229203;28;20030;-68
2022/08/05 00:56:38;;;;;;;1.13;0.80;;;24.60;45.90;;;;;;6217880;28;20056;-68
2022/08/05 00:59:39;;;;;;;1.23;0.82;;;24.60;45.90;;;;;;6238613;28;20022;-68
2022/08/05 01:02:39;;;;;;;1.05;0.77;;;24.60;46.00;;;;;;6216397;28;20530;-68
2022/08/05 01:05:40;;;;;;;0.70;0.50;;;24.60;46.00;;;;;;6242585;28;20732;-68
2022/08/05 01:08:41;;;;;;;0.80;0.60;;;24.60;45.90;;;;;;6230757;28;20018;-67
2022/08/05 01:11:44;;;;;;;1.58;0.70;;;24.60;45.90;;;;;;6217730;28;20101;-67
2022/08/05 01:15:05;;;;;;;0.50;0.50;;;24.60;45.90;;;;;;6237419;28;20032;-68
2022/08/05 01:18:13;;;;;;;0.82;0.60;;;24.60;45.90;;;;;;6236770;28;20029;-68
2022/08/05 01:21:24;;;;;;;0.60;0.60;;;24.60;45.90;;;;;;6217782;28;20298;-67
2022/08/05 01:24:28;;;;;;;1.00;0.73;;;24.60;45.90;;;;;;6226729;28;20058;-68
2022/08/05 01:27:44;;;;;;;0.60;0.60;;;24.60;45.90;;;;;;6217700;28;20049;-69
2022/08/05 01:31:14;;;;;;;0.50;0.50;;;24.50;45.80;;;;;;6193192;28;20023;-68
2022/08/05 01:34:35;;;;;;;0.52;0.50;;;24.60;45.80;;;;;;6230217;28;20025;-69
2022/08/05 01:37:42;;;;;;;3.33;0.70;;;24.60;45.80;;;;;;6241793;28;20122;-69
2022/08/05 01:40:45;;;;;;;0.60;0.60;;;24.60;45.80;;;;;;6217686;28;20048;-67
2022/08/05 01:43:47;;;;;;;0.65;0.52;;;24.60;45.80;;;;;;6226251;28;20048;-69
2022/08/05 01:46:48;;;;;;;0.70;0.60;;;24.60;45.80;;;;;;6242752;28;20044;-68
2022/08/05 01:49:53;;;;;;;0.95;0.80;;;24.60;45.80;;;;;;6227142;28;20026;-69
2022/08/05 01:52:58;;;;;;;0.75;0.70;;;24.60;45.80;;;;;;6219241;28;20022;-69
2022/08/05 01:56:01;;;;;;;0.90;0.80;;;24.60;45.70;;;;;;6193556;28;20034;-68
2022/08/05 01:59:05;;;;;;;1.17;0.82;;;24.60;45.70;;;;;;6208232;28;20441;-68
2022/08/05 02:02:07;;;;;;;0.70;0.57;;;24.60;45.70;;;;;;6206822;28;20088;-68
2022/08/05 02:05:11;;;;;;;0.60;0.50;;;24.60;45.70;;;;;;6225201;28;20476;-68
2022/08/05 02:08:12;;;;;;;0.50;0.50;;;24.60;45.60;;;;;;6241682;28;20029;-67
2022/08/05 02:11:16;;;;;;;0.77;0.60;;;24.60;45.60;;;;;;6216627;28;20717;-68
2022/08/05 02:14:25;;;;;;;0.75;0.70;;;24.60;45.60;;;;;;6225067;28;20475;-68
2022/08/05 02:17:32;;;;;;;0.77;0.70;;;24.60;45.60;;;;;;6242907;28;20072;-68
2022/08/05 02:20:47;;;;;;;1.08;0.50;;;24.60;45.60;;;;;;6225100;28;20026;-68
2022/08/05 02:23:53;;;;;;;0.73;0.60;;;24.60;45.60;;;;;;6219828;28;20070;-68
2022/08/05 02:26:59;;;;;;;0.70;0.60;;;24.60;45.60;;;;;;6241477;28;20038;-68
2022/08/05 02:30:01;;;;;;;0.75;0.52;;;24.60;45.60;;;;;;6230441;28;20072;-68
2022/08/05 02:33:03;;;;;;;0.60;0.55;;;24.60;45.60;;;;;;6221776;28;20018;-68
2022/08/05 02:36:07;;;;;;;0.77;0.68;;;24.60;45.60;;;;;;6221419;28;20022;-69
2022/08/05 02:39:09;;;;;;;0.68;0.68;;;24.60;45.60;;;;;;6219769;28;20021;-69
2022/08/05 02:42:10;;;;;;;0.50;0.50;;;24.60;45.60;;;;;;6241392;28;20636;-68
2022/08/05 02:45:13;;;;;;;0.63;0.40;;;24.60;45.60;;;;;;6229958;28;20029;-68
2022/08/05 02:48:16;;;;;;;1.02;0.73;;;24.60;45.60;;;;;;6215037;28;20128;-68
2022/08/05 02:51:17;;;;;;;0.55;0.50;;;24.60;45.60;;;;;;6236110;28;20053;-68
2022/08/05 02:54:20;;;;;;;0.65;0.63;;;24.60;45.60;;;;;;6238660;28;20017;-68
2022/08/05 02:57:23;;;;;;;0.60;0.60;;;24.60;45.60;;;;;;6216760;28;20018;-68
2022/08/05 03:00:24;;;;;;;1.17;0.80;;;24.60;45.50;;;;;;6221331;28;20424;-68
2022/08/05 03:03:27;;;;;;;0.60;0.50;;;24.60;45.50;;;;;;6193741;28;20057;-69
2022/08/05 03:06:29;;;;;;;0.63;0.60;;;24.60;45.50;;;;;;6231267;28;20025;-69
2022/08/05 03:09:30;;;;;;;0.57;0.57;;;24.60;45.50;;;;;;6240520;28;20026;-68
2022/08/05 03:12:31;;;;;;;0.63;0.55;;;24.60;45.50;;;;;;6221955;28;20033;-68
2022/08/05 03:15:32;;;;;;;2.30;0.73;;;24.60;45.50;;;;;;6231564;28;20030;-68
2022/08/05 03:18:33;;;;;;;0.30;0.30;;;24.60;45.50;;;;;;6245341;28;20052;-69
2022/08/05 03:21:33;;;;;;;0.60;0.50;;;24.60;45.50;;;;;;6227637;28;20036;-67
2022/08/05 03:24:34;;;;;;;0.93;0.57;;;24.60;45.50;;;;;;6220599;28;20061;-68
2022/08/05 03:27:35;;;;;;;1.20;0.73;;;24.60;45.40;;;;;;6244808;28;20152;-68
2022/08/05 03:30:36;;;;;;;0.50;0.50;;;24.60;45.40;;;;;;6236387;28;20032;-69
2022/08/05 03:33:40;;;;;;;0.65;0.57;;;24.60;45.40;;;;;;6221457;28;20026;-69
2022/08/05 03:36:41;;;;;;;0.70;0.50;;;24.60;45.30;;;;;;6220369;28;20610;-68
2022/08/05 03:39:54;;;;;;;0.68;0.68;;;24.60;45.30;;;;;;6235590;28;20037;-68
2022/08/05 03:42:55;;;;;;;0.50;0.50;;;24.60;45.40;;;;;;6195572;28;20376;-68
2022/08/05 03:45:55;;;;;;;0.60;0.60;;;24.60;45.40;;;;;;6213474;28;20037;-68
2022/08/05 03:48:57;;;;;;;0.68;0.60;;;24.60;45.40;;;;;;6244019;28;20354;-69
2022/08/05 03:52:04;;;;;;;0.95;0.60;;;24.40;46.80;;;;;;6227624;28;20101;-68
2022/08/05 03:55:10;;;;;;;0.88;0.77;;;24.30;46.90;;;;;;6220495;28;20029;-69
2022/08/05 03:58:15;;;;;;;0.68;0.60;;;24.20;47.30;;;;;;6243782;28;20025;-68
2022/08/05 04:01:18;;;;;;;0.70;0.70;;;24.20;47.90;;;;;;6242242;28;20033;-68
2022/08/05 04:04:20;;;;;;;0.70;0.70;;;24.10;48.50;;;;;;6243688;28;20103;-68
2022/08/05 04:07:22;;;;;;;0.65;0.52;;;24.10;48.90;;;;;;6227782;28;20018;-68
2022/08/05 04:10:24;;;;;;;0.50;0.50;;;24.10;48.90;;;;;;6221642;28;20687;-69
2022/08/05 04:13:26;;;;;;;0.70;0.60;;;24.00;49.20;;;;;;6243745;28;20025;-68
2022/08/05 04:16:27;;;;;;;0.63;0.47;;;24.00;49.00;;;;;;6234772;28;20025;-69
2022/08/05 04:19:28;;;;;;;0.80;0.60;;;24.00;49.30;;;;;;6219574;28;20048;-68
2022/08/05 04:22:29;;;;;;;0.70;0.70;;;24.00;49.50;;;;;;6235060;28;20104;-68
2022/08/05 04:25:29;;;;;;;0.63;0.50;;;24.00;49.50;;;;;;6228956;28;20054;-68
2022/08/05 04:28:30;;;;;;;0.40;0.40;;;24.00;49.30;;;;;;6218556;28;20034;-68
2022/08/05 04:31:31;;;;;;;0.57;0.57;;;24.00;49.40;;;;;;6221901;28;20341;-68
2022/08/05 04:34:32;;;;;;;0.60;0.52;;;24.00;49.60;;;;;;6218610;28;20089;-68
2022/08/05 04:37:32;;;;;;;0.57;0.57;;;24.00;49.70;;;;;;6218992;28;20376;-68
2022/08/05 04:40:37;;;;;;;0.80;0.70;;;23.90;49.40;;;;;;6220480;28;20030;-68
2022/08/05 04:43:39;;;;;;;0.77;0.50;;;23.90;49.50;;;;;;6242669;28;20018;-68
2022/08/05 04:46:40;;;;;;;1.00;0.50;;;23.90;49.70;;;;;;6236255;28;20036;-68
2022/08/05 04:49:40;;;;;;;0.60;0.50;;;23.90;49.80;;;;;;6218543;28;20405;-68
2022/08/05 04:52:41;;;;;;;0.68;0.60;;;23.90;50.00;;;;;;6232585;28;20061;-69
2022/08/05 04:55:42;;;;;;;0.95;0.77;;;23.90;50.20;;;;;;6242882;28;20025;-68
2022/08/05 04:58:43;;;;;;;0.55;0.47;;;23.90;50.40;;;;;;6220726;28;20033;-68
2022/08/05 05:01:44;;;;;;;0.40;0.40;;;23.80;50.40;;;;;;6219102;28;20448;-68
2022/08/05 05:04:44;;;;;;;0.50;0.50;;;23.90;50.60;;;;;;6242378;28;20032;-68
2022/08/05 05:07:45;;;;;;;1.25;0.70;;;23.80;50.40;;;;;;6229359;28;20105;-68
2022/08/05 05:10:46;;;;;;;0.55;0.55;;;23.80;50.30;;;;;;6219389;28;20477;-68
2022/08/05 05:13:47;;;;;;;0.65;0.55;;;23.80;50.20;;;;;;6233630;28;20096;-68
2022/08/05 05:16:47;;;;;;;1.20;0.52;;;23.90;50.30;;;;;;6209789;28;20020;-68
2022/08/05 05:19:48;;;;;;;0.68;0.57;;;23.80;50.20;;;;;;6241922;28;20044;-68
2022/08/05 05:22:48;;;;;;;0.60;0.60;;;23.90;50.30;;;;;;6227846;28;20183;-68
2022/08/05 05:25:49;;;;;;;0.50;0.50;;;23.80;50.30;;;;;;6229517;28;20041;-68
2022/08/05 05:28:50;;;;;;;0.70;0.60;;;23.80;50.30;;;;;;6211250;28;20559;-67
2022/08/05 05:31:50;;;;;;;0.43;0.43;;;23.80;50.40;;;;;;6228558;28;20052;-69
2022/08/05 05:34:51;;;;;;;0.98;0.70;;;23.80;50.40;;;;;;6228567;28;20030;-69
2022/08/05 05:37:54;;;;;;;0.60;0.60;;;23.80;50.50;;;;;;6217083;28;20026;-69
2022/08/05 05:40:55;;;;;;;0.55;0.50;;;23.80;50.50;;;;;;6218592;28;20024;-68
2022/08/05 05:43:55;;;;;;;0.73;0.60;;;23.80;50.60;;;;;;6234766;28;20036;-68
2022/08/05 05:46:56;;;;;;;0.90;0.80;;;23.80;50.70;;;;;;6240834;28;20034;-68
2022/08/05 05:49:57;;;;;;;1.00;0.52;;;23.80;50.70;;;;;;6217516;28;20098;-68
2022/08/05 05:52:58;;;;;;;0.57;0.57;;;23.80;50.90;;;;;;6225170;28;20018;-68
2022/08/05 05:55:58;;;;;;;0.60;0.60;;;23.80;50.80;;;;;;6241555;28;20097;-68
2022/08/05 05:59:03;;;;;;;0.50;0.50;;;23.80;50.80;;;;;;6224461;28;20021;-68
2022/08/05 06:02:04;;;;;;;0.68;0.68;;;23.80;50.80;;;;;;6206272;28;20056;-69
2022/08/05 06:05:09;;;;;;;1.92;0.70;;;23.80;50.90;;;;;;6227222;28;20042;-69
2022/08/05 06:08:10;;;;;;;0.88;0.60;;;23.80;50.80;;;;;;6219767;28;20022;-69
2022/08/05 06:11:11;;;;;;;0.80;0.80;;;23.80;50.90;;;;;;6220501;28;20034;-69
2022/08/05 06:14:11;;;;;;;0.60;0.60;;;23.80;51.00;;;;;;6235349;28;20025;-69
2022/08/05 06:17:12;;;;;;;0.65;0.60;;;23.80;51.00;;;;;;6244357;28;20387;-69
2022/08/05 06:20:13;;;;;;;1.77;0.73;;;23.80;51.00;;;;;;6208522;28;20034;-69
2022/08/05 06:23:13;;;;;;;0.80;0.70;;;23.80;51.10;;;;;;6225344;28;20049;-68
2022/08/05 06:26:14;;;;;;;1.48;0.88;;;23.80;51.10;;;;;;6224057;28;20085;-67
2022/08/05 06:29:15;;;;;;;0.70;0.60;;;23.80;51.10;;;;;;6233087;28;20423;-69
2022/08/05 06:32:16;;;;;;;0.68;0.60;;;23.80;51.20;;;;;;6230193;28;20092;-69
2022/08/05 06:35:17;;;;;;;0.77;0.68;;;23.80;51.20;;;;;;6216586;28;20555;-69
2022/08/05 06:38:18;;;;;;;1.58;0.90;;;23.80;51.30;;;;;;6221661;28;20024;-69
2022/08/05 06:41:19;;;;;;;1.40;0.80;;;23.80;51.40;;;;;;6241310;28;20034;-68
2022/08/05 06:44:19;;;;;;;0.90;0.80;;;23.70;51.30;;;;;;6229398;28;20535;-69
2022/08/05 06:47:20;;;;;;;0.85;0.70;;;23.70;52.10;;;;;;6212324;28;20111;-68
2022/08/05 06:50:21;;;;;;;0.57;0.57;;;23.80;51.50;;;;;;6191706;28;20374;-69
2022/08/05 06:53:21;;;;;;;2.42;0.75;;;23.80;52.50;;;;;;6200439;28;20060;-69
2022/08/05 06:56:22;;;;;;;6.30;0.82;;;23.80;52.60;;;;;;6201124;28;20496;-69
2022/08/05 06:59:22;;;;;;;3.72;0.90;;;23.90;52.90;;;;;;6222081;28;20030;-68
2022/08/05 07:02:23;;;;;;;1.83;1.10;;;24.00;52.60;;;;;;6202487;28;20045;-67
2022/08/05 07:05:25;;;;;;;4.05;0.98;;;24.00;52.60;;;;;;6236654;28;20408;-67
2022/08/05 07:08:27;;;;;;;2.03;1.00;;;24.00;52.10;;;;;;6246680;28;20036;-68
2022/08/05 07:11:29;;;;;;;2.83;1.08;;;24.00;52.00;;;;;;6224576;28;20041;-68
2022/08/05 07:17:49;;;;;;;1.83;0.80;;;24.10;51.90;;;;;;6248023;28;20033;-68
2022/08/05 07:20:50;;;;;;;1.30;0.90;;;24.10;51.90;;;;;;6227532;28;20044;-68
2022/08/05 07:23:50;;;;;;;2.40;1.00;;;24.10;51.80;;;;;;6226649;28;20084;-67
2022/08/05 07:26:52;;;;;;;0.88;0.80;;;24.10;51.70;;;;;;6200712;28;20370;-67
2022/08/05 07:29:52;;;;;;;1.67;1.02;;;24.10;51.80;;;;;;6212435;28;20018;-67
2022/08/05 07:32:53;;;;;;;2.55;0.90;;;24.10;51.80;;;;;;6223651;28;20030;-67
2022/08/05 07:35:53;;;;;;;1.25;0.90;;;24.10;52.00;;;;;;6237665;28;20101;-67
2022/08/05 07:38:54;;;;;;;1.45;0.90;;;24.10;51.90;;;;;;6247251;28;20025;-68
2022/08/05 07:41:55;;;;;;;2.05;1.05;;;24.20;52.00;;;;;;6223233;28;20026;-68
2022/08/05 07:44:56;;;;;;;1.38;1.00;;;24.20;52.30;;;;;;6219857;28;20030;-68
2022/08/05 07:47:57;;;;;;;0.93;0.70;;;24.20;51.90;;;;;;6221530;28;20037;-68
2022/08/05 07:50:59;;;;;;;1.45;0.82;;;24.20;51.90;;;;;;6240838;28;20080;-68
2022/08/05 07:53:59;;;;;;;1.95;1.10;;;24.20;52.00;;;;;;6247493;28;20030;-67
2022/08/05 07:57:03;;;;;;;0.93;0.80;;;24.20;52.90;;;;;;6222451;28;20076;-68
2022/08/05 08:00:05;;;;;;;3.17;1.03;;;24.20;52.40;;;;;;6230100;28;20105;-67
2022/08/05 08:03:12;;;;;;;1.98;0.80;;;24.20;52.60;;;;;;6198823;28;20029;-68
2022/08/05 08:06:13;;;;;;;1.08;0.75;;;24.10;50.10;;;;;;6232538;28;20045;-68
2022/08/05 08:09:14;;;;;;;2.65;0.85;;;24.20;49.40;;;;;;6240722;28;20029;-68
2022/08/05 08:12:14;;;;;;;1.77;0.95;;;24.20;49.00;;;;;;6247316;28;20017;-68
2022/08/05 08:15:15;;;;;;;1.00;0.90;;;24.30;48.80;;;;;;6239290;28;20026;-68
2022/08/05 08:18:16;;;;;;;1.48;1.00;;;24.40;48.60;;;;;;6222421;28;20049;-67
2022/08/05 08:21:17;;;;;;;1.30;0.65;;;24.40;48.50;;;;;;6238218;28;20059;-68
2022/08/05 08:24:17;;;;;;;1.40;0.90;;;24.50;48.30;;;;;;6242701;28;20057;-68
2022/08/05 08:27:18;;;;;;;2.17;0.75;;;24.60;48.10;;;;;;6211564;28;20022;-67
2022/08/05 08:30:19;;;;;;;3.67;0.80;;;24.60;48.00;;;;;;6228596;28;20029;-68
2022/08/05 08:33:19;;;;;;;1.67;0.80;;;24.60;48.00;;;;;;6227212;28;20025;-68
2022/08/05 08:36:20;;;;;;;1.05;0.80;;;24.70;47.90;;;;;;6222282;28;20056;-67
2022/08/05 08:39:23;;;;;;;1.42;0.82;;;24.70;47.80;;;;;;6222766;28;20542;-68
2022/08/05 08:42:24;;;;;;;1.25;0.80;;;24.70;48.40;;;;;;6244247;28;20487;-68
2022/08/05 08:45:25;;;;;;;0.75;0.70;;;24.70;47.50;;;;;;6240532;28;20034;-68
2022/08/05 08:48:28;;;;;;;1.17;0.77;;;24.70;47.50;;;;;;6221676;28;20695;-68
2022/08/05 08:51:32;;;;;;;0.85;0.73;;;24.70;47.50;;;;;;6220868;28;20461;-68
2022/08/05 08:54:34;;;;;;;0.60;0.60;;;24.80;47.40;;;;;;6221377;28;20397;-68
2022/08/05 08:57:35;;;;;;;0.80;0.70;;;24.80;47.50;;;;;;6243261;28;20450;-69
2022/08/05 09:00:36;;;;;;;0.93;0.77;;;24.70;47.40;;;;;;6244620;28;20019;-68
2022/08/05 09:03:37;;;;;;;0.88;0.70;;;24.70;47.40;;;;;;6223710;28;20026;-69
2022/08/05 09:06:38;;;;;;;2.38;0.90;;;24.80;47.30;;;;;;6231610;28;20113;-69
2022/08/05 09:09:39;;;;;;;1.45;0.70;;;24.80;47.30;;;;;;6220115;28;20026;-68
2022/08/05 09:12:40;;;;;;;3.05;0.70;;;24.80;47.30;;;;;;6241741;28;20563;-69
2022/08/05 09:15:41;;;;;;;2.30;1.38;;;24.80;47.30;;;;;;6242965;28;20025;-69
2022/08/05 09:18:43;;;;;;;0.90;0.80;;;24.80;47.20;;;;;;6221342;28;20105;-68
2022/08/05 09:21:43;;;;;;;0.80;0.77;;;24.80;47.00;;;;;;6232593;28;20029;-69
2022/08/05 09:24:59;;;;;;;0.70;0.60;;;24.80;47.10;;;;;;6245698;28;20057;-69
2022/08/05 09:28:15;;;;;;;0.88;0.70;;;24.80;47.00;;;;;;6225355;28;20134;-69
2022/08/05 09:31:16;;;;;;;1.48;0.90;;;24.80;46.90;;;;;;6224725;28;20380;-69
2022/08/05 09:34:16;;;;;;;0.95;0.80;;;24.80;46.90;;;;;;6222774;28;20022;-69
2022/08/05 09:37:25;;;;;;;0.95;0.70;;;24.80;46.80;;;;;;6246259;28;20075;-69
2022/08/05 09:40:39;;;;;;;1.92;0.80;;;24.90;46.80;;;;;;6245492;28;20100;-69
2022/08/05 09:43:40;;;;;;;1.00;0.77;;;24.90;46.90;;;;;;6221943;28;20113;-69
2022/08/05 09:46:41;;;;;;;0.88;0.75;;;24.90;46.80;;;;;;6228059;28;20033;-69
2022/08/05 09:49:49;;;;;;;1.05;0.70;;;24.90;46.80;;;;;;6245528;28;20111;-69
2022/08/05 09:52:57;;;;;;;1.27;0.98;;;24.90;46.70;;;;;;6229563;28;20030;-69
2022/08/05 09:56:01;;;;;;;0.98;0.80;;;24.90;46.70;;;;;;6196582;28;20057;-69
2022/08/05 09:59:07;;;;;;;1.05;0.68;;;24.90;46.60;;;;;;6196632;28;20023;-69
2022/08/05 10:02:08;;;;;;;0.88;0.82;;;24.90;46.50;;;;;;6202046;28;20104;-69
2022/08/05 10:05:13;;;;;;;1.27;0.65;;;24.90;46.50;;;;;;6220204;28;20118;-69
2022/08/05 10:08:24;;;;;;;1.42;1.00;;;24.90;46.60;;;;;;6237710;28;20091;-69
2022/08/05 10:11:25;;;;;;;2.92;0.90;;;24.90;46.60;;;;;;6221108;28;20048;-69
2022/08/05 10:14:30;;;;;;;1.38;0.80;;;24.90;47.10;;;;;;6222256;28;20027;-69
2022/08/05 10:17:31;;;;;;;2.65;0.90;;;24.90;46.90;;;;;;6215349;28;20029;-69
2022/08/05 10:20:33;;;;;;;1.60;0.80;;;24.90;46.70;;;;;;6248189;28;20415;-69
2022/08/05 10:23:36;;;;;;;1.15;0.80;;;25.00;46.70;;;;;;6231964;28;20050;-69
2022/08/05 10:26:40;;;;;;;1.45;0.70;;;25.00;47.10;;;;;;6226085;28;20034;-68
2022/08/05 10:29:41;;;;;;;1.73;0.97;;;25.00;47.10;;;;;;6249307;28;20902;-69
2022/08/05 10:32:42;;;;;;;0.98;0.75;;;25.00;47.00;;;;;;6235613;28;20022;-69
2022/08/05 10:35:42;;;;;;;1.10;0.70;;;25.00;46.60;;;;;;6224874;28;20026;-69
2022/08/05 10:38:46;;;;;;;0.93;0.70;;;25.00;46.60;;;;;;6241789;28;20567;-69
2022/08/05 10:42:08;;;;;;;2.50;1.13;;;25.00;47.90;;;;;;6249090;28;20029;-70
2022/08/05 10:45:12;;;;;;;2.15;0.90;;;25.00;48.20;;;;;;6224112;28;20045;-69
2022/08/05 10:48:42;;;;;;;1.63;0.70;;;25.00;48.50;;;;;;6204358;28;20042;-70
2022/08/05 10:51:47;;;;;;;1.38;0.90;;;25.00;48.00;;;;;;6200188;28;20107;-69
2022/08/05 10:55:02;;;;;;;2.75;0.90;;;25.10;48.00;;;;;;6246502;28;20354;-69
2022/08/05 10:58:10;;;;;;;2.38;0.80;;;25.10;47.50;;;;;;6240263;28;20551;-69
2022/08/05 11:01:11;;;;;;;1.30;1.00;;;25.10;47.10;;;;;;6213429;28;20511;-69
2022/08/05 11:04:17;;;;;;;1.15;0.63;;;25.10;47.00;;;;;;6214346;28;20018;-69
2022/08/05 11:07:19;;;;;;;1.17;0.90;;;25.10;46.80;;;;;;6213569;28;20446;-69
2022/08/05 11:10:24;;;;;;;1.58;1.00;;;25.10;46.60;;;;;;6213572;28;20076;-69
2022/08/05 11:13:40;;;;;;;1.30;0.75;;;25.10;46.50;;;;;;6214295;28;20018;-69
2022/08/05 11:16:41;;;;;;;1.55;0.60;;;25.10;46.60;;;;;;6211555;28;20029;-69
2022/08/05 11:19:45;;;;;;;0.93;0.82;;;25.10;46.60;;;;;;6213257;28;20030;-70
2022/08/05 11:22:51;;;;;;;1.20;0.93;;;25.10;46.50;;;;;;6214248;28;20111;-68
2022/08/05 11:26:30;;;;;;;4.38;1.00;;;25.10;46.60;;;;;;6200695;28;20042;-69
2022/08/05 11:29:39;;;;;;;2.95;0.82;;;25.10;46.80;;;;;;6195786;28;20029;-69
2022/08/05 11:32:40;;;;;;;0.80;0.60;;;25.10;46.50;;;;;;6194575;28;20065;-69
2022/08/05 11:35:52;;;;;;;1.80;0.80;;;25.10;46.40;;;;;;6212044;28;20050;-69
2022/08/05 11:38:54;;;;;;;1.15;0.80;;;25.10;46.30;;;;;;6212171;28;20031;-69
2022/08/05 11:41:56;;;;;;;1.13;0.85;;;25.10;46.20;;;;;;6211221;28;20031;-70
2022/08/05 11:45:04;;;;;;;0.80;0.80;;;25.10;46.10;;;;;;6214767;28;20100;-69
2022/08/05 11:48:09;;;;;;;1.42;0.80;;;25.10;46.10;;;;;;6213490;28;20072;-69
2022/08/05 11:51:09;;;;;;;1.08;0.77;;;25.10;46.10;;;;;;6210980;28;20476;-69
2022/08/05 11:54:12;;;;;;;0.82;0.68;;;25.10;46.20;;;;;;6213004;28;20099;-70
2022/08/05 11:57:13;;;;;;;1.98;0.90;;;25.10;46.10;;;;;;6206468;28;20022;-68
2022/08/05 12:00:27;;;;;;;0.77;0.70;;;25.10;46.10;;;;;;6213185;28;20044;-68
2022/08/05 12:03:28;;;;;;;1.10;0.82;;;25.10;46.50;;;;;;6213324;28;20136;-69
2022/08/05 12:06:34;;;;;;;2.70;0.70;;;25.20;46.50;;;;;;6207197;28;20034;-68
2022/08/05 12:09:37;;;;;;;0.60;0.60;;;25.20;46.50;;;;;;6194934;28;20022;-69
2022/08/05 12:12:38;;;;;;;4.38;0.90;;;25.20;46.30;;;;;;6211415;28;20053;-67
2022/08/05 12:15:43;;;;;;;1.92;0.80;;;25.20;46.90;;;;;;6218411;28;20473;-70
2022/08/05 12:18:46;;;;;;;1.25;0.70;;;25.30;46.30;;;;;;6217404;28;20037;-70
2022/08/05 12:21:49;;;;;;;1.33;0.50;;;25.30;46.40;;;;;;6222832;28;20520;-70
2022/08/05 12:24:50;;;;;;;1.52;0.90;;;25.30;46.10;;;;;;6232252;28;20144;-70
2022/08/05 12:27:51;;;;;;;6.60;0.73;;;25.30;46.00;;;;;;6198413;28;20728;-70
2022/08/05 12:30:51;;;;;;;0.55;0.55;;;25.20;45.90;;;;;;6235557;28;20103;-69
2022/08/05 12:33:53;;;;;;;1.42;0.68;;;25.30;45.90;;;;;;6222431;28;20101;-70
2022/08/05 12:36:56;;;;;;;0.60;0.60;;;25.20;45.80;;;;;;6221746;28;20025;-70
2022/08/05 12:39:57;;;;;;;0.75;0.60;;;25.20;45.80;;;;;;6232590;28;20021;-69
2022/08/05 12:42:57;;;;;;;0.75;0.60;;;25.20;45.80;;;;;;6245633;28;20037;-70
2022/08/05 12:45:58;;;;;;;1.17;0.70;;;25.20;45.80;;;;;;6228016;28;20477;-69
2022/08/05 12:49:04;;;;;;;1.63;0.57;;;25.20;46.50;;;;;;6222653;28;20050;-69
2022/08/05 12:52:13;;;;;;;1.02;0.50;;;25.20;45.80;;;;;;6243492;28;20030;-69
2022/08/05 12:55:25;;;;;;;0.75;0.60;;;25.20;45.80;;;;;;6231523;28;20021;-69
2022/08/05 12:58:26;;;;;;;1.20;0.60;;;25.20;45.80;;;;;;6243741;28;20031;-69
2022/08/05 13:01:26;;;;;;;0.80;0.70;;;25.20;45.80;;;;;;6225977;28;20392;-70
2022/08/05 13:04:30;;;;;;;0.93;0.63;;;25.20;46.40;;;;;;6223409;28;20022;-70
2022/08/05 13:07:30;;;;;;;0.70;0.60;;;25.20;45.70;;;;;;6245755;28;20117;-69
2022/08/05 13:10:34;;;;;;;1.58;0.52;;;25.20;45.70;;;;;;6234701;28;20022;-70
2022/08/05 13:13:38;;;;;;;0.63;0.63;;;25.20;45.60;;;;;;6221304;28;20045;-69
2022/08/05 13:16:53;;;;;;;0.95;0.55;;;25.20;45.70;;;;;;6240557;28;20087;-70
2022/08/05 13:20:20;;;;;;;0.52;0.50;;;25.20;45.60;;;;;;6240740;28;20033;-70
2022/08/05 13:23:20;;;;;;;0.85;0.70;;;25.20;45.60;;;;;;6220478;28;20046;-69
2022/08/05 13:26:21;;;;;;;0.40;0.40;;;25.20;45.60;;;;;;6219991;28;20068;-69
2022/08/05 13:29:22;;;;;;;0.60;0.60;;;25.20;45.60;;;;;;6220926;28;20105;-70
2022/08/05 13:32:23;;;;;;;0.80;0.50;;;25.20;45.50;;;;;;6232478;28;20160;-69
2022/08/05 13:35:23;;;;;;;0.82;0.60;;;25.10;45.40;;;;;;6221218;28;20029;-69
2022/08/05 13:38:24;;;;;;;0.77;0.60;;;25.20;45.40;;;;;;6220551;28;20026;-70
2022/08/05 13:41:25;;;;;;;0.70;0.57;;;25.20;45.40;;;;;;6234575;28;20053;-69
2022/08/05 13:44:25;;;;;;;0.50;0.50;;;25.20;45.40;;;;;;6244833;28;20024;-70
2022/08/05 13:47:26;;;;;;;0.80;0.70;;;25.10;45.30;;;;;;6223100;28;20055;-70
2022/08/05 13:50:27;;;;;;;0.60;0.57;;;25.20;45.30;;;;;;6225178;28;20043;-70
2022/08/05 13:53:27;;;;;;;1.15;0.70;;;25.20;45.80;;;;;;6229105;28;20073;-70
2022/08/05 13:56:28;;;;;;;1.38;0.60;;;25.30;46.00;;;;;;6223718;28;20025;-70
2022/08/05 13:59:29;;;;;;;3.30;0.60;;;25.30;45.80;;;;;;6232077;28;20560;-71
2022/08/05 14:02:29;;;;;;;1.40;0.60;;;25.30;45.80;;;;;;6230496;28;20040;-70
2022/08/05 14:05:30;;;;;;;0.80;0.70;;;25.20;45.60;;;;;;6221474;28;20030;-70
2022/08/05 14:08:31;;;;;;;0.50;0.40;;;25.20;45.50;;;;;;6244723;28;20026;-70
2022/08/05 14:11:31;;;;;;;1.83;0.50;;;25.20;45.60;;;;;;6233698;28;20057;-69
2022/08/05 14:14:32;;;;;;;0.50;0.45;;;25.20;45.60;;;;;;6219900;28;20030;-70
2022/08/05 14:17:32;;;;;;;2.42;0.63;;;25.20;45.40;;;;;;6240854;28;20021;-70
2022/08/05 14:20:33;;;;;;;0.47;0.47;;;25.20;45.40;;;;;;6221598;28;20033;-70
2022/08/05 14:23:34;;;;;;;1.00;0.60;;;25.20;45.30;;;;;;6218573;28;20058;-70
2022/08/05 14:26:34;;;;;;;1.08;0.70;;;25.20;45.40;;;;;;6224435;28;20041;-69
2022/08/05 14:29:35;;;;;;;0.55;0.47;;;25.20;45.40;;;;;;6214306;28;20043;-70
2022/08/05 14:32:36;;;;;;;0.85;0.60;;;25.20;45.40;;;;;;6217463;28;20487;-69
2022/08/05 14:35:36;;;;;;;0.75;0.50;;;25.20;45.30;;;;;;6187297;28;20019;-69
2022/08/05 14:38:37;;;;;;;1.13;0.60;;;25.20;45.30;;;;;;6243641;28;20029;-70
2022/08/05 14:41:38;;;;;;;0.50;0.50;;;25.20;45.30;;;;;;6235930;28;20041;-70
2022/08/05 14:44:38;;;;;;;0.70;0.60;;;25.20;45.30;;;;;;6195630;28;20026;-70
2022/08/05 14:47:39;;;;;;;0.60;0.60;;;25.30;45.20;;;;;;6227251;28;20057;-70
2022/08/05 14:50:40;;;;;;;0.80;0.70;;;25.30;45.20;;;;;;6200563;28;20033;-70
2022/08/05 14:53:40;;;;;;;0.75;0.50;;;25.30;45.10;;;;;;6225695;28;20041;-70
2022/08/05 14:56:41;;;;;;;0.60;0.50;;;25.30;45.20;;;;;;6203927;28;20488;-69
2022/08/05 14:59:42;;;;;;;0.65;0.60;;;25.30;45.10;;;;;;6218538;28;20018;-70
2022/08/05 15:02:42;;;;;;;0.93;0.52;;;25.30;45.10;;;;;;6212895;28;20018;-69
2022/08/05 15:05:43;;;;;;;0.95;0.50;;;25.30;45.10;;;;;;6196306;28;20035;-71
2022/08/05 15:08:44;;;;;;;0.65;0.50;;;25.30;45.20;;;;;;6209351;28;20022;-71
2022/08/05 15:11:45;;;;;;;0.60;0.60;;;25.30;45.20;;;;;;6227517;28;20017;-70
2022/08/05 15:14:46;;;;;;;0.68;0.63;;;25.30;45.10;;;;;;6247637;28;20075;-70
2022/08/05 15:17:46;;;;;;;4.00;0.80;;;25.30;45.20;;;;;;6234300;28;20045;-70
2022/08/05 15:20:47;;;;;;;5.50;0.65;;;25.40;45.30;;;;;;6222309;28;20109;-70
2022/08/05 15:23:48;;;;;;;1.05;0.60;;;25.40;45.40;;;;;;6240746;28;20045;-70
2022/08/05 15:26:48;;;;;;;2.67;0.70;;;25.40;45.20;;;;;;6222432;28;20026;-69
2022/08/05 15:29:49;;;;;;;0.93;0.70;;;25.40;45.70;;;;;;6222018;28;20524;-69
2022/08/05 15:32:50;;;;;;;0.70;0.60;;;25.40;45.50;;;;;;6222822;28;20439;-69
2022/08/05 15:35:51;;;;;;;0.95;0.70;;;25.40;45.30;;;;;;6223216;28;20097;-69
2022/08/05 15:38:52;;;;;;;3.60;0.70;;;25.40;45.30;;;;;;6241136;28;20364;-70
2022/08/05 15:41:53;;;;;;;0.77;0.60;;;25.40;45.20;;;;;;6245733;28;20515;-70
2022/08/05 15:44:53;;;;;;;1.23;0.60;;;25.40;45.30;;;;;;6222559;28;20022;-69
2022/08/05 15:47:54;;;;;;;1.05;0.70;;;25.30;45.30;;;;;;6231846;28;20026;-69
2022/08/05 15:50:55;;;;;;;0.93;0.70;;;25.40;46.00;;;;;;6247340;28;20021;-70
2022/08/05 15:53:55;;;;;;;0.60;0.60;;;25.40;45.30;;;;;;6229575;28;20041;-69
2022/08/05 15:56:56;;;;;;;0.80;0.60;;;25.40;45.20;;;;;;6198733;28;20030;-70